Time;durP1;ratioP1;P1;durP2;ratioP2;P2;SDS_P1;SDS_P2;PMS_P1;PMS_P2;Temp;Humidity;BMP_temperature;BMP_pressure;BME280_temperature;BME280_humidity;BME280_pressure;Samples;Min_cycle;Max_cycle;Signal;HPM_P1;HPM_P2
2023/11/08 00:00:22;;;;;;;2.30;2.00;;;8.20;99.90;;;;;;5079820;28;20208;-62
2023/11/08 00:02:49;;;;;;;9.90;2.50;;;8.20;99.90;;;;;;5078051;28;20220;-61
2023/11/08 00:05:17;;;;;;;3.67;2.20;;;8.30;99.90;;;;;;5077901;28;20205;-61
2023/11/08 00:07:44;;;;;;;4.43;2.63;;;8.30;99.90;;;;;;5076524;28;20205;-61
2023/11/08 00:10:12;;;;;;;2.95;2.40;;;8.30;99.90;;;;;;5077020;28;20205;-60
2023/11/08 00:12:41;;;;;;;4.43;2.58;;;8.40;99.90;;;;;;5076554;28;20225;-63
2023/11/08 00:15:08;;;;;;;2.65;2.45;;;8.40;99.90;;;;;;5076324;28;20201;-61
2023/11/08 00:17:36;;;;;;;7.68;2.55;;;8.40;99.90;;;;;;5075166;28;20224;-62
2023/11/08 00:20:03;;;;;;;3.65;2.35;;;8.50;99.90;;;;;;5075948;28;20200;-62
2023/11/08 00:22:33;;;;;;;6.35;2.75;;;8.50;99.90;;;;;;5074917;28;20220;-62
2023/11/08 00:25:00;;;;;;;3.60;2.30;;;8.60;99.90;;;;;;5074251;28;20296;-61
2023/11/08 00:27:27;;;;;;;7.82;2.92;;;8.60;99.90;;;;;;5075403;28;20580;-62
2023/11/08 00:29:54;;;;;;;3.47;2.10;;;8.60;99.90;;;;;;5079168;28;20560;-61
2023/11/08 00:32:21;;;;;;;3.38;2.75;;;8.70;99.90;;;;;;5078530;28;20231;-61
2023/11/08 00:34:48;;;;;;;5.55;2.50;;;8.70;99.90;;;;;;5077882;28;20205;-61
2023/11/08 00:37:15;;;;;;;2.38;2.17;;;8.70;99.90;;;;;;5078719;28;20587;-61
2023/11/08 00:39:44;;;;;;;2.90;2.70;;;8.70;99.90;;;;;;5078888;28;20207;-61
2023/11/08 00:42:10;;;;;;;5.35;2.40;;;8.80;99.90;;;;;;5078450;28;20227;-61
2023/11/08 00:44:37;;;;;;;6.35;2.60;;;8.80;99.90;;;;;;5078511;28;20197;-61
2023/11/08 00:47:04;;;;;;;4.13;3.15;;;8.90;99.90;;;;;;5079210;28;20193;-61
2023/11/08 00:49:31;;;;;;;4.07;2.75;;;8.90;99.90;;;;;;5078846;28;20201;-61
2023/11/08 00:52:00;;;;;;;4.05;2.90;;;8.90;99.90;;;;;;5078499;28;20227;-61
2023/11/08 00:54:27;;;;;;;5.10;2.80;;;8.90;99.90;;;;;;5078169;28;20281;-61
2023/11/08 00:56:55;;;;;;;3.78;2.60;;;8.90;99.90;;;;;;5079291;28;20224;-61
2023/11/08 00:59:22;;;;;;;5.00;3.30;;;8.90;99.90;;;;;;5079390;28;20207;-61
2023/11/08 01:01:49;;;;;;;3.42;2.60;;;8.90;99.90;;;;;;5079500;28;20227;-61
2023/11/08 01:04:16;;;;;;;4.03;3.50;;;8.90;99.90;;;;;;5079048;28;20201;-61
2023/11/08 01:06:43;;;;;;;3.85;3.45;;;9.00;99.90;;;;;;5079426;28;20204;-62
2023/11/08 01:09:10;;;;;;;5.05;3.53;;;9.00;99.90;;;;;;5080478;28;20212;-62
2023/11/08 01:11:38;;;;;;;7.07;3.78;;;9.00;99.90;;;;;;5078663;28;20611;-61
2023/11/08 01:14:06;;;;;;;3.50;3.08;;;9.00;99.90;;;;;;5079754;28;20200;-61
2023/11/08 01:16:33;;;;;;;3.85;3.13;;;9.00;99.90;;;;;;5079271;28;20200;-61
2023/11/08 01:18:59;;;;;;;4.28;3.85;;;9.00;99.90;;;;;;5079057;28;20562;-63
2023/11/08 01:21:26;;;;;;;5.10;3.55;;;9.00;99.90;;;;;;5080309;28;20208;-61
2023/11/08 01:23:53;;;;;;;7.00;4.28;;;9.00;99.90;;;;;;5081595;28;20205;-61
2023/11/08 01:26:20;;;;;;;5.78;4.32;;;9.00;99.90;;;;;;5080682;28;20196;-61
2023/11/08 01:28:47;;;;;;;5.35;4.40;;;9.00;99.90;;;;;;5086390;28;20197;-63
2023/11/08 01:31:15;;;;;;;7.40;4.47;;;9.00;99.90;;;;;;5088495;28;20280;-61
2023/11/08 01:33:42;;;;;;;7.78;4.78;;;9.00;99.90;;;;;;5088706;28;20217;-62
2023/11/08 01:36:09;;;;;;;5.55;4.80;;;9.00;99.90;;;;;;5077904;28;20201;-61
2023/11/08 01:38:36;;;;;;;7.15;5.60;;;9.00;99.90;;;;;;5076270;28;20695;-61
2023/11/08 01:41:03;;;;;;;9.48;5.45;;;9.00;99.90;;;;;;5076381;28;20196;-60
2023/11/08 01:43:30;;;;;;;6.53;4.90;;;9.00;99.90;;;;;;5078117;28;20221;-61
2023/11/08 01:46:06;;;;;;;6.85;4.80;;;9.00;99.90;;;;;;5080379;28;20197;-62
2023/11/08 01:48:34;;;;;;;7.13;5.72;;;9.00;99.90;;;;;;5081322;28;20181;-62
2023/11/08 01:51:03;;;;;;;7.28;5.35;;;9.00;99.90;;;;;;5082261;28;20296;-62
2023/11/08 01:53:31;;;;;;;9.55;5.88;;;9.00;99.90;;;;;;5083197;28;20221;-62
2023/11/08 01:55:58;;;;;;;8.50;5.80;;;9.00;99.90;;;;;;5083221;28;20212;-62
2023/11/08 01:58:25;;;;;;;8.00;5.88;;;9.00;99.90;;;;;;5084000;28;20251;-62
2023/11/08 02:00:52;;;;;;;6.45;4.80;;;9.00;99.90;;;;;;5083893;28;20211;-62
2023/11/08 02:03:19;;;;;;;6.10;5.05;;;9.10;99.90;;;;;;5083161;28;20225;-62
2023/11/08 02:05:47;;;;;;;6.53;5.80;;;9.10;99.90;;;;;;5083460;28;20651;-62
2023/11/08 02:08:14;;;;;;;5.80;5.30;;;9.10;99.90;;;;;;5087419;28;20225;-61
2023/11/08 02:10:42;;;;;;;8.88;5.47;;;9.10;99.90;;;;;;5086713;28;20217;-62
2023/11/08 02:13:09;;;;;;;9.52;5.60;;;9.10;99.90;;;;;;5085028;28;20221;-61
2023/11/08 02:15:39;;;;;;;6.03;4.90;;;9.10;99.90;;;;;;5080386;28;20668;-61
2023/11/08 02:18:06;;;;;;;8.55;4.78;;;9.10;99.90;;;;;;5077790;28;20275;-61
2023/11/08 02:20:34;;;;;;;6.82;5.30;;;9.10;99.90;;;;;;5077083;28;20201;-62
2023/11/08 02:23:02;;;;;;;7.63;5.30;;;9.10;99.90;;;;;;5076018;28;20231;-61
2023/11/08 02:25:31;;;;;;;7.30;4.40;;;9.20;99.90;;;;;;5076216;28;20208;-62
2023/11/08 02:27:58;;;;;;;7.65;4.43;;;9.20;99.90;;;;;;5075717;28;20201;-60
2023/11/08 02:30:25;;;;;;;5.13;4.43;;;9.20;99.90;;;;;;5075304;28;20205;-61
2023/11/08 02:32:52;;;;;;;5.20;4.70;;;9.10;99.90;;;;;;5075223;28;20221;-61
2023/11/08 02:35:19;;;;;;;5.05;3.70;;;9.20;99.90;;;;;;5075019;28;20201;-62
2023/11/08 02:37:48;;;;;;;5.68;4.43;;;9.20;99.90;;;;;;5075200;28;20782;-61
2023/11/08 02:40:15;;;;;;;5.32;4.45;;;9.20;99.90;;;;;;5075880;28;20295;-62
2023/11/08 02:42:44;;;;;;;4.97;4.35;;;9.20;99.90;;;;;;5074837;28;20246;-61
2023/11/08 02:45:11;;;;;;;5.55;4.88;;;9.20;99.90;;;;;;5074543;28;20258;-60
2023/11/08 02:47:37;;;;;;;4.95;4.35;;;9.10;99.90;;;;;;5074258;28;20200;-62
2023/11/08 02:50:05;;;;;;;6.75;6.05;;;9.10;99.90;;;;;;5074495;28;20216;-62
2023/11/08 02:52:32;;;;;;;8.75;5.00;;;9.10;99.90;;;;;;5073325;28;20225;-61
2023/11/08 02:54:59;;;;;;;5.90;5.30;;;9.10;99.90;;;;;;5074290;28;20201;-61
2023/11/08 02:57:27;;;;;;;5.82;5.25;;;9.10;99.90;;;;;;5074190;28;20197;-62
2023/11/08 02:59:55;;;;;;;6.15;5.45;;;9.10;99.90;;;;;;5074055;28;20209;-61
2023/11/08 03:02:22;;;;;;;5.50;5.10;;;9.10;99.90;;;;;;5074696;28;20221;-61
2023/11/08 03:04:49;;;;;;;6.13;5.40;;;9.10;99.90;;;;;;5074187;28;20262;-61
2023/11/08 03:07:16;;;;;;;9.77;6.60;;;9.10;99.90;;;;;;5073852;28;20200;-62
2023/11/08 03:09:43;;;;;;;5.80;5.15;;;9.10;99.90;;;;;;5073731;28;20675;-61
2023/11/08 03:12:09;;;;;;;6.68;4.50;;;9.10;99.90;;;;;;5073671;28;20239;-61
2023/11/08 03:14:36;;;;;;;5.05;4.65;;;9.20;99.90;;;;;;5073590;28;20278;-62
2023/11/08 03:17:04;;;;;;;7.82;4.40;;;9.20;99.90;;;;;;5075595;28;20204;-63
2023/11/08 03:19:31;;;;;;;5.78;5.05;;;9.20;99.90;;;;;;5081655;28;20225;-62
2023/11/08 03:22:00;;;;;;;5.78;4.80;;;9.20;99.90;;;;;;5073638;28;20315;-61
2023/11/08 03:24:27;;;;;;;9.02;6.57;;;9.10;99.90;;;;;;5073628;28;20291;-62
2023/11/08 03:26:54;;;;;;;6.22;5.63;;;9.10;99.90;;;;;;5073647;28;20224;-61
2023/11/08 03:29:21;;;;;;;7.15;4.90;;;9.10;99.90;;;;;;5073695;28;20564;-62
2023/11/08 03:31:47;;;;;;;5.70;5.00;;;9.10;99.90;;;;;;5073646;28;20254;-61
2023/11/08 03:34:15;;;;;;;6.55;4.53;;;9.10;99.90;;;;;;5073759;28;20580;-62
2023/11/08 03:36:43;;;;;;;6.28;5.57;;;9.10;99.90;;;;;;5073449;28;20204;-61
2023/11/08 03:39:10;;;;;;;7.18;5.05;;;9.10;99.90;;;;;;5073649;28;20262;-61
2023/11/08 03:41:36;;;;;;;6.05;5.45;;;9.10;99.90;;;;;;5073316;28;20197;-62
2023/11/08 03:44:05;;;;;;;8.00;6.20;;;9.10;99.90;;;;;;5072878;28;20687;-61
2023/11/08 03:46:32;;;;;;;6.97;6.28;;;9.10;99.90;;;;;;5073427;28;20300;-61
2023/11/08 03:48:59;;;;;;;6.70;5.95;;;9.10;99.90;;;;;;5073561;28;20216;-62
2023/11/08 03:51:28;;;;;;;6.00;5.40;;;9.10;99.90;;;;;;5073317;28;20293;-62
2023/11/08 03:53:55;;;;;;;9.38;5.82;;;9.10;99.90;;;;;;5074016;28;20204;-61
2023/11/08 03:56:21;;;;;;;6.25;5.75;;;9.00;99.90;;;;;;5073188;28;20551;-61
2023/11/08 03:58:48;;;;;;;6.50;5.70;;;9.00;99.90;;;;;;5073214;28;20349;-62
2023/11/08 04:01:15;;;;;;;7.65;6.55;;;8.90;99.90;;;;;;5073387;28;20211;-61
2023/11/08 04:03:42;;;;;;;5.95;5.45;;;8.90;99.90;;;;;;5073046;28;20227;-61
2023/11/08 04:06:08;;;;;;;8.48;6.15;;;8.90;99.90;;;;;;5073148;28;20210;-61
2023/11/08 04:08:37;;;;;;;7.22;6.53;;;8.90;99.90;;;;;;5073198;28;20196;-62
2023/11/08 04:12:30;;;;;;;6.88;6.25;;;8.80;99.90;;;;;;5122901;27;20578;-61
2023/11/08 04:14:57;;;;;;;6.63;6.03;;;8.80;99.90;;;;;;5111802;28;20254;-61
2023/11/08 04:17:23;;;;;;;6.05;5.55;;;8.70;99.90;;;;;;5111966;28;20207;-62
2023/11/08 04:19:51;;;;;;;7.80;6.03;;;8.70;99.90;;;;;;5111377;28;20200;-63
2023/11/08 04:22:18;;;;;;;7.47;6.10;;;8.70;99.90;;;;;;5111847;28;20314;-62
2023/11/08 04:24:45;;;;;;;6.50;5.90;;;8.70;99.90;;;;;;5111468;28;20200;-62
2023/11/08 04:27:12;;;;;;;7.80;7.00;;;8.70;99.90;;;;;;5112396;28;20281;-62
2023/11/08 04:29:41;;;;;;;10.02;7.28;;;8.60;99.90;;;;;;5115211;28;20199;-62
2023/11/08 04:32:08;;;;;;;6.72;6.13;;;8.70;99.90;;;;;;5114830;28;20677;-62
2023/11/08 04:34:35;;;;;;;6.53;5.93;;;8.70;99.90;;;;;;5111309;28;20544;-62
2023/11/08 04:37:05;;;;;;;7.63;6.20;;;8.70;99.90;;;;;;5110721;28;20218;-61
2023/11/08 04:39:31;;;;;;;6.85;6.25;;;8.70;99.90;;;;;;5111417;28;20200;-62
2023/11/08 04:41:58;;;;;;;9.93;7.63;;;8.70;99.90;;;;;;5110791;28;20224;-61
2023/11/08 04:44:25;;;;;;;8.52;6.95;;;8.70;99.90;;;;;;5111266;28;20226;-61
2023/11/08 04:46:53;;;;;;;8.48;7.60;;;8.80;99.90;;;;;;5111757;28;20199;-62
2023/11/08 04:49:20;;;;;;;8.68;7.00;;;8.80;99.90;;;;;;5111189;28;20200;-62
2023/11/08 04:51:47;;;;;;;8.90;8.10;;;8.80;99.90;;;;;;5110713;28;20220;-62
2023/11/08 04:54:13;;;;;;;9.20;7.93;;;8.80;99.90;;;;;;5110758;28;20626;-61
2023/11/08 04:56:41;;;;;;;10.95;8.90;;;8.70;99.90;;;;;;5110650;28;20697;-61
2023/11/08 04:59:11;;;;;;;9.40;8.25;;;8.70;99.90;;;;;;5112187;28;20222;-61
2023/11/08 05:01:38;;;;;;;9.48;8.18;;;8.70;99.90;;;;;;5116745;28;20200;-61
2023/11/08 05:04:06;;;;;;;9.40;7.35;;;8.70;99.90;;;;;;5117053;28;20656;-62
2023/11/08 05:06:33;;;;;;;10.50;8.13;;;8.80;99.90;;;;;;5120104;28;20587;-62
2023/11/08 05:09:00;;;;;;;8.27;7.45;;;8.80;99.90;;;;;;5111427;28;20519;-62
2023/11/08 05:11:29;;;;;;;8.57;7.68;;;8.80;99.90;;;;;;5110118;28;20220;-62
2023/11/08 05:13:56;;;;;;;9.20;7.82;;;8.80;99.90;;;;;;5110705;28;20219;-61
2023/11/08 05:16:23;;;;;;;9.48;8.10;;;8.90;99.90;;;;;;5110626;28;20226;-60
2023/11/08 05:18:51;;;;;;;9.85;7.25;;;8.90;99.90;;;;;;5110120;28;20210;-62
2023/11/08 05:21:19;;;;;;;8.30;7.60;;;8.90;99.90;;;;;;5110932;28;20231;-61
2023/11/08 05:23:46;;;;;;;9.18;8.20;;;8.80;99.90;;;;;;5098110;28;20200;-61
2023/11/08 05:26:13;;;;;;;8.40;7.60;;;8.80;99.90;;;;;;5098889;28;20203;-63
2023/11/08 05:28:40;;;;;;;8.80;7.25;;;8.70;99.90;;;;;;5099096;28;20200;-62
2023/11/08 05:31:06;;;;;;;8.98;8.13;;;8.70;99.90;;;;;;5099350;28;20220;-61
2023/11/08 05:33:33;;;;;;;8.85;7.95;;;8.70;99.90;;;;;;5100462;28;20228;-61
2023/11/08 05:36:00;;;;;;;10.38;7.15;;;8.70;99.90;;;;;;5098990;28;20200;-62
2023/11/08 05:38:28;;;;;;;8.20;7.50;;;8.70;99.90;;;;;;5099115;28;20210;-62
2023/11/08 05:40:55;;;;;;;19.65;7.82;;;8.70;99.90;;;;;;5097984;28;20192;-61
2023/11/08 05:43:22;;;;;;;10.65;7.72;;;8.70;99.90;;;;;;5097678;28;20216;-61
2023/11/08 05:45:49;;;;;;;9.52;7.30;;;8.70;99.90;;;;;;5098569;28;20208;-61
2023/11/08 05:48:16;;;;;;;8.07;7.32;;;8.70;99.90;;;;;;5096231;28;20211;-61
2023/11/08 05:50:43;;;;;;;11.98;6.72;;;8.70;99.90;;;;;;5096033;28;20203;-62
2023/11/08 05:53:13;;;;;;;7.88;7.18;;;8.70;99.90;;;;;;5096350;28;20216;-62
2023/11/08 05:55:41;;;;;;;11.52;8.05;;;8.70;99.90;;;;;;5096934;28;20608;-62
2023/11/08 05:58:08;;;;;;;8.20;7.47;;;8.80;99.90;;;;;;5097219;28;20201;-63
2023/11/08 06:00:35;;;;;;;8.80;7.97;;;8.80;99.90;;;;;;5096788;28;20203;-60
2023/11/08 06:03:02;;;;;;;8.90;8.10;;;8.80;99.90;;;;;;5096527;28;20311;-62
2023/11/08 06:05:29;;;;;;;11.18;8.43;;;8.80;99.90;;;;;;5097341;28;20587;-61
2023/11/08 06:07:56;;;;;;;9.68;8.65;;;8.90;99.90;;;;;;5096794;28;20217;-63
2023/11/08 06:10:23;;;;;;;9.65;7.78;;;8.80;99.90;;;;;;5096252;28;20381;-64
2023/11/08 06:12:51;;;;;;;8.65;7.85;;;8.80;99.90;;;;;;5096546;28;20387;-63
2023/11/08 06:15:18;;;;;;;8.60;7.60;;;8.80;99.90;;;;;;5096653;28;20200;-63
2023/11/08 06:17:45;;;;;;;17.38;9.43;;;8.70;99.90;;;;;;5096554;28;20200;-64
2023/11/08 06:20:12;;;;;;;9.52;8.52;;;8.70;99.90;;;;;;5096744;28;20200;-62
2023/11/08 06:22:39;;;;;;;9.73;8.15;;;8.80;99.90;;;;;;5095970;28;20224;-63
2023/11/08 06:25:06;;;;;;;11.02;7.97;;;8.80;99.90;;;;;;5096103;28;20213;-62
2023/11/08 06:27:33;;;;;;;10.30;8.30;;;8.80;99.90;;;;;;5097357;28;20204;-63
2023/11/08 06:30:02;;;;;;;9.70;8.70;;;8.80;99.90;;;;;;5097231;28;20235;-63
2023/11/08 06:32:29;;;;;;;9.90;8.57;;;8.90;99.90;;;;;;5097436;28;20224;-61
2023/11/08 06:35:00;;;;;;;8.10;7.32;;;8.90;99.90;;;;;;5096429;28;20200;-62
2023/11/08 06:37:27;;;;;;;11.20;8.80;;;9.00;99.90;;;;;;5097023;28;20184;-61
2023/11/08 06:39:54;;;;;;;9.15;8.20;;;9.00;99.90;;;;;;5097283;28;20626;-63
2023/11/08 06:42:21;;;;;;;9.50;8.50;;;9.00;99.90;;;;;;5097081;28;20231;-63
2023/11/08 06:44:47;;;;;;;9.35;7.75;;;9.10;99.90;;;;;;5096627;28;20204;-64
2023/11/08 06:47:16;;;;;;;7.85;7.05;;;9.10;99.90;;;;;;5102529;28;20214;-63
2023/11/08 06:49:43;;;;;;;8.88;7.35;;;9.20;99.90;;;;;;5107525;28;20212;-63
2023/11/08 06:52:09;;;;;;;8.25;7.03;;;9.20;99.90;;;;;;5100486;28;20688;-61
2023/11/08 06:54:36;;;;;;;10.35;7.10;;;9.20;99.90;;;;;;5111255;28;20211;-63
2023/11/08 06:57:04;;;;;;;8.88;6.20;;;9.20;99.90;;;;;;5097617;28;20215;-63
2023/11/08 06:59:32;;;;;;;10.02;7.53;;;9.20;99.90;;;;;;5098742;28;20200;-63
2023/11/08 07:01:59;;;;;;;6.68;6.07;;;9.20;99.90;;;;;;5096836;28;20315;-63
2023/11/08 07:04:28;;;;;;;7.88;6.38;;;9.30;99.90;;;;;;5097309;28;20200;-62
2023/11/08 07:06:55;;;;;;;10.73;8.30;;;9.30;99.90;;;;;;5097209;28;20204;-63
2023/11/08 07:09:21;;;;;;;7.70;6.93;;;9.30;99.90;;;;;;5096883;28;20470;-62
2023/11/08 07:11:48;;;;;;;6.90;6.30;;;9.30;99.90;;;;;;5097615;28;20616;-62
2023/11/08 07:14:15;;;;;;;8.57;7.13;;;9.30;99.90;;;;;;5097665;28;20449;-62
2023/11/08 07:16:43;;;;;;;8.70;6.80;;;9.40;99.90;;;;;;5098230;28;20877;-63
2023/11/08 07:19:12;;;;;;;7.00;6.40;;;9.40;99.90;;;;;;5098337;28;20205;-63
2023/11/08 07:21:40;;;;;;;8.67;6.87;;;9.50;99.90;;;;;;5099000;28;20665;-63
2023/11/08 07:24:08;;;;;;;7.07;6.43;;;9.80;99.90;;;;;;5098834;28;20542;-63
2023/11/08 07:26:35;;;;;;;7.20;6.50;;;9.80;99.90;;;;;;5098699;28;20445;-61
2023/11/08 07:29:04;;;;;;;7.13;6.27;;;9.80;99.90;;;;;;5099403;28;20445;-61
2023/11/08 07:31:30;;;;;;;7.70;6.70;;;9.80;99.90;;;;;;5098481;28;20532;-64
2023/11/08 07:33:57;;;;;;;7.53;6.80;;;9.80;99.90;;;;;;5098413;28;20454;-64
2023/11/08 07:36:24;;;;;;;11.03;7.83;;;9.80;99.90;;;;;;5097457;28;21008;-62
2023/11/08 07:38:52;;;;;;;10.43;6.60;;;9.80;99.90;;;;;;5099388;28;20446;-63
2023/11/08 07:41:20;;;;;;;8.30;7.50;;;9.80;99.90;;;;;;5097415;28;20438;-63
2023/11/08 07:43:47;;;;;;;8.80;7.90;;;9.80;99.90;;;;;;5098678;28;20453;-62
2023/11/08 07:46:13;;;;;;;8.17;7.37;;;9.80;99.90;;;;;;5098571;28;20468;-64
2023/11/08 07:48:40;;;;;;;9.80;7.07;;;9.80;99.90;;;;;;5100827;28;20442;-60
2023/11/08 07:51:08;;;;;;;8.90;7.43;;;9.80;99.90;;;;;;5100301;28;20447;-61
2023/11/08 07:53:35;;;;;;;10.43;8.53;;;9.90;99.90;;;;;;5097214;28;20219;-61
2023/11/08 07:56:04;;;;;;;14.30;9.93;;;9.90;99.90;;;;;;5098714;28;20438;-61
2023/11/08 07:58:32;;;;;;;8.50;7.13;;;9.90;99.90;;;;;;5097075;28;20435;-62
2023/11/08 08:00:59;;;;;;;9.00;8.10;;;9.90;99.90;;;;;;5096627;28;20476;-62
2023/11/08 08:03:25;;;;;;;7.73;7.00;;;9.90;99.90;;;;;;5096606;28;20836;-61
2023/11/08 08:05:53;;;;;;;9.27;8.10;;;10.00;99.90;;;;;;5099110;28;20452;-62
2023/11/08 08:08:20;;;;;;;8.73;7.00;;;10.00;99.90;;;;;;5099691;28;20538;-61
2023/11/08 08:10:47;;;;;;;7.90;7.10;;;10.10;99.90;;;;;;5097392;28;20857;-62
2023/11/08 08:13:15;;;;;;;8.23;7.43;;;10.10;99.90;;;;;;5100041;28;21038;-62
2023/11/08 08:15:43;;;;;;;7.40;6.60;;;10.10;99.90;;;;;;5098994;28;20477;-61
2023/11/08 08:18:11;;;;;;;6.93;6.23;;;10.20;99.90;;;;;;5099248;28;20210;-60
2023/11/08 08:20:39;;;;;;;7.03;6.32;;;10.20;99.90;;;;;;5100212;28;20522;-63
2023/11/08 08:23:09;;;;;;;7.57;6.73;;;10.30;99.90;;;;;;5099307;28;20724;-61
2023/11/08 08:25:37;;;;;;;8.03;6.83;;;10.30;99.90;;;;;;5101082;28;20426;-61
2023/11/08 08:28:05;;;;;;;9.60;7.50;;;10.30;99.90;;;;;;5099450;28;20443;-61
2023/11/08 08:30:33;;;;;;;7.53;6.87;;;10.30;99.90;;;;;;5100124;28;20445;-61
2023/11/08 08:33:01;;;;;;;6.90;6.17;;;10.40;99.90;;;;;;5103793;28;20486;-62
2023/11/08 08:35:28;;;;;;;10.97;7.00;;;10.40;99.90;;;;;;5103621;28;20537;-61
2023/11/08 08:37:55;;;;;;;9.57;7.57;;;10.40;99.90;;;;;;5103789;28;20455;-62
2023/11/08 08:40:22;;;;;;;8.70;6.80;;;10.40;99.90;;;;;;5104190;28;20442;-62
2023/11/08 08:42:50;;;;;;;9.17;7.40;;;10.40;99.90;;;;;;5106218;28;20458;-62
2023/11/08 08:45:16;;;;;;;7.60;6.90;;;10.50;99.90;;;;;;5109448;28;20458;-62
2023/11/08 08:47:45;;;;;;;11.00;6.40;;;10.50;99.90;;;;;;5105794;28;20478;-62
2023/11/08 08:50:13;;;;;;;10.53;6.10;;;10.50;99.90;;;;;;5104079;28;20492;-62
2023/11/08 08:52:40;;;;;;;7.13;6.20;;;10.50;99.90;;;;;;5100612;28;20478;-62
2023/11/08 08:55:08;;;;;;;6.57;6.07;;;10.60;99.90;;;;;;5102332;28;20444;-60
2023/11/08 08:57:35;;;;;;;10.17;5.70;;;10.60;99.90;;;;;;5107938;28;20448;-61
2023/11/08 09:00:02;;;;;;;5.87;5.27;;;10.70;99.90;;;;;;5108323;28;20447;-63
2023/11/08 09:02:29;;;;;;;7.13;6.13;;;10.70;99.90;;;;;;5105733;28;20494;-62
2023/11/08 09:04:57;;;;;;;8.13;6.27;;;10.70;99.90;;;;;;5103316;28;20438;-62
2023/11/08 09:07:24;;;;;;;7.30;5.73;;;10.70;99.90;;;;;;5103227;28;20449;-62
2023/11/08 09:09:51;;;;;;;6.50;5.90;;;10.70;99.90;;;;;;5102476;28;20446;-63
2023/11/08 09:12:18;;;;;;;6.73;5.17;;;10.70;99.90;;;;;;5102687;28;20482;-62
2023/11/08 09:14:52;;;;;;;6.77;5.37;;;10.80;99.90;;;;;;5105279;28;20465;-61
2023/11/08 09:17:19;;;;;;;6.13;5.50;;;10.70;99.90;;;;;;5104136;28;20443;-62
2023/11/08 09:19:46;;;;;;;8.00;6.10;;;10.70;99.90;;;;;;5105015;28;20438;-61
2023/11/08 09:22:14;;;;;;;6.53;6.03;;;10.70;99.90;;;;;;5104377;28;20458;-62
2023/11/08 09:24:41;;;;;;;6.20;5.57;;;10.70;99.90;;;;;;5108201;28;20446;-62
2023/11/08 09:27:08;;;;;;;6.37;5.73;;;10.70;99.90;;;;;;5107899;28;20452;-61
2023/11/08 09:29:35;;;;;;;6.90;6.20;;;10.80;99.90;;;;;;5104959;28;20449;-62
2023/11/08 09:32:03;;;;;;;5.90;5.40;;;10.80;99.90;;;;;;5109276;28;20596;-60
2023/11/08 09:34:30;;;;;;;6.30;5.63;;;10.90;99.90;;;;;;5104033;28;20446;-61
2023/11/08 09:37:00;;;;;;;6.27;5.67;;;10.90;99.90;;;;;;5101850;28;20920;-62
2023/11/08 09:39:28;;;;;;;6.30;5.67;;;10.90;99.90;;;;;;5101537;28;20456;-61
2023/11/08 09:41:56;;;;;;;6.37;5.80;;;11.00;99.90;;;;;;5100106;28;20458;-61
2023/11/08 09:44:25;;;;;;;8.77;7.03;;;11.00;99.90;;;;;;5098865;28;20583;-61
2023/11/08 09:46:54;;;;;;;6.70;6.10;;;11.00;99.90;;;;;;5098813;28;20438;-61
2023/11/08 09:49:22;;;;;;;6.77;6.20;;;11.00;99.90;;;;;;5099157;28;20932;-62
2023/11/08 09:51:49;;;;;;;6.63;5.90;;;11.00;99.90;;;;;;5099823;28;20462;-61
2023/11/08 09:54:16;;;;;;;7.33;5.80;;;11.10;99.90;;;;;;5099257;28;20464;-61
2023/11/08 09:56:45;;;;;;;6.63;5.70;;;11.00;99.90;;;;;;5099248;28;20525;-61
2023/11/08 09:59:14;;;;;;;6.37;5.77;;;11.10;99.90;;;;;;5099137;28;20902;-61
2023/11/08 10:01:41;;;;;;;6.23;5.63;;;11.10;99.90;;;;;;5098552;28;20533;-61
2023/11/08 10:04:10;;;;;;;6.13;5.60;;;11.10;99.90;;;;;;5098113;28;20496;-61
2023/11/08 10:06:37;;;;;;;6.37;5.73;;;11.20;99.90;;;;;;5097271;28;20858;-62
2023/11/08 10:09:05;;;;;;;7.67;5.57;;;11.30;99.90;;;;;;5096308;28;20443;-60
2023/11/08 10:11:36;;;;;;;6.60;5.70;;;11.30;99.90;;;;;;5096408;28;20462;-61
2023/11/08 10:14:04;;;;;;;8.33;5.80;;;11.40;99.90;;;;;;5096108;28;20975;-60
2023/11/08 10:16:44;;;;;;;6.47;5.10;;;11.40;99.90;;;;;;5098669;28;20445;-60
2023/11/08 10:19:11;;;;;;;7.87;5.20;;;11.40;99.90;;;;;;5096665;28;20448;-60
2023/11/08 10:21:37;;;;;;;12.23;5.07;;;11.50;99.90;;;;;;5096523;28;20438;-60
2023/11/08 10:24:11;;;;;;;4.57;4.13;;;11.60;99.90;;;;;;5096307;28;20444;-60
2023/11/08 10:26:38;;;;;;;5.50;4.90;;;11.70;99.90;;;;;;5096238;28;20939;-60
2023/11/08 10:29:07;;;;;;;3.83;3.43;;;11.80;99.90;;;;;;5097073;28;20821;-59
2023/11/08 10:31:35;;;;;;;8.50;3.83;;;11.90;99.90;;;;;;5096284;28;20565;-59
2023/11/08 10:34:03;;;;;;;3.30;3.00;;;11.80;99.90;;;;;;5097070;28;20474;-61
2023/11/08 10:36:32;;;;;;;3.40;3.10;;;11.80;99.90;;;;;;5098673;28;20439;-60
2023/11/08 10:38:59;;;;;;;6.93;3.73;;;11.70;99.90;;;;;;5101960;28;20461;-61
2023/11/08 10:41:26;;;;;;;4.70;3.80;;;11.70;99.90;;;;;;5097232;28;20470;-61
2023/11/08 10:44:22;;;;;;;6.63;2.93;;;11.70;99.90;;;;;;5096949;28;20438;-60
2023/11/08 10:46:57;;;;;;;6.50;3.23;;;11.80;99.90;;;;;;5083040;28;20481;-60
2023/11/08 10:49:24;;;;;;;4.00;2.70;;;11.90;99.90;;;;;;5097720;28;20450;-60
2023/11/08 10:51:53;;;;;;;5.03;3.53;;;12.00;99.90;;;;;;5096636;28;20455;-60
2023/11/08 10:54:20;;;;;;;6.17;3.03;;;11.90;99.90;;;;;;5097010;28;20570;-60
2023/11/08 10:56:50;;;;;;;3.10;2.83;;;11.80;99.90;;;;;;5097798;28;20537;-59
2023/11/08 10:59:20;;;;;;;5.53;2.90;;;11.80;99.90;;;;;;5098637;28;20806;-60
2023/11/08 11:01:48;;;;;;;4.40;2.90;;;11.80;99.90;;;;;;5096937;28;20545;-60
2023/11/08 11:04:19;;;;;;;3.87;3.10;;;11.80;99.90;;;;;;5095650;28;20825;-60
2023/11/08 11:06:48;;;;;;;6.67;3.60;;;11.80;99.90;;;;;;5095554;28;20467;-61
2023/11/08 11:09:16;;;;;;;4.23;2.73;;;11.70;99.90;;;;;;5095377;28;20586;-60
2023/11/08 11:11:44;;;;;;;4.17;2.87;;;11.70;99.90;;;;;;5094593;28;20547;-60
2023/11/08 11:14:25;;;;;;;8.03;3.03;;;11.70;99.90;;;;;;5095621;28;20474;-59
2023/11/08 11:16:56;;;;;;;4.37;2.60;;;11.80;99.90;;;;;;5095737;28;20452;-60
2023/11/08 11:19:25;;;;;;;5.33;3.07;;;11.80;99.90;;;;;;5097194;28;20431;-62
2023/11/08 11:21:54;;;;;;;5.30;3.17;;;11.90;99.90;;;;;;5097866;28;20474;-61
2023/11/08 11:24:39;;;;;;;4.20;2.70;;;12.00;99.90;;;;;;5095990;28;20434;-62
2023/11/08 11:27:06;;;;;;;4.17;2.70;;;12.10;99.90;;;;;;5095013;28;20438;-62
2023/11/08 11:29:35;;;;;;;6.20;2.40;;;12.20;99.90;;;;;;5095120;28;20438;-61
2023/11/08 11:32:04;;;;;;;5.20;3.03;;;12.30;99.90;;;;;;5094962;28;20480;-60
2023/11/08 11:34:44;;;;;;;4.70;2.40;;;12.30;99.40;;;;;;5094546;28;20551;-61
2023/11/08 11:37:18;;;;;;;5.47;2.40;;;12.30;99.20;;;;;;5094112;28;20448;-60
2023/11/08 11:40:13;;;;;;;2.47;1.77;;;12.40;99.20;;;;;;5095852;28;20466;-61
2023/11/08 11:42:43;;;;;;;5.07;2.30;;;12.50;99.00;;;;;;5095138;28;20466;-61
2023/11/08 11:45:12;;;;;;;4.03;2.37;;;12.60;98.30;;;;;;5096891;28;20534;-60
2023/11/08 11:47:41;;;;;;;5.00;1.90;;;12.70;98.00;;;;;;5096467;28;20473;-59
2023/11/08 11:50:10;;;;;;;5.77;2.70;;;12.70;97.30;;;;;;5097466;28;20857;-61
2023/11/08 11:52:38;;;;;;;5.37;2.13;;;12.80;97.10;;;;;;5095864;28;20466;-60
2023/11/08 11:55:08;;;;;;;3.13;1.67;;;12.80;96.50;;;;;;5096797;28;20439;-60
2023/11/08 11:57:36;;;;;;;2.90;1.93;;;12.80;96.20;;;;;;5096373;28;20450;-61
2023/11/08 12:00:05;;;;;;;4.50;2.13;;;12.70;95.80;;;;;;5096747;28;20971;-60
2023/11/08 12:02:33;;;;;;;7.27;3.10;;;12.50;95.70;;;;;;5105132;28;20986;-60
2023/11/08 12:05:01;;;;;;;5.90;3.20;;;12.60;95.70;;;;;;5108651;28;20540;-60
2023/11/08 12:07:28;;;;;;;3.93;2.37;;;12.60;95.60;;;;;;5098796;28;20529;-60
2023/11/08 12:09:55;;;;;;;6.30;2.50;;;12.70;95.30;;;;;;5097159;28;20843;-61
2023/11/08 12:12:29;;;;;;;4.07;2.10;;;12.70;94.90;;;;;;5096652;28;20470;-61
2023/11/08 12:14:57;;;;;;;3.67;2.10;;;12.70;94.60;;;;;;5095082;28;20489;-61
2023/11/08 12:17:24;;;;;;;5.93;2.70;;;12.70;94.40;;;;;;5096264;28;20442;-61
2023/11/08 12:19:53;;;;;;;2.97;1.83;;;12.70;94.20;;;;;;5100515;28;20438;-61
2023/11/08 12:22:21;;;;;;;2.13;1.80;;;12.70;94.00;;;;;;5102213;28;20466;-60
2023/11/08 12:24:48;;;;;;;2.00;1.30;;;12.70;93.80;;;;;;5099728;28;20470;-60
2023/11/08 12:27:16;;;;;;;2.43;1.80;;;12.70;93.50;;;;;;5100478;28;20446;-60
2023/11/08 12:29:43;;;;;;;6.50;2.00;;;12.80;93.60;;;;;;5095375;28;20445;-61
2023/11/08 12:32:10;;;;;;;4.07;1.60;;;12.90;93.20;;;;;;5097291;28;20453;-61
2023/11/08 12:34:36;;;;;;;5.20;1.90;;;12.90;92.90;;;;;;5103114;28;21017;-60
2023/11/08 12:37:05;;;;;;;4.20;1.93;;;13.00;92.60;;;;;;5104126;28;20456;-60
2023/11/08 12:39:32;;;;;;;4.10;1.90;;;13.00;92.50;;;;;;5104638;28;20446;-61
2023/11/08 12:41:58;;;;;;;6.10;2.10;;;13.00;92.10;;;;;;5102469;28;20462;-60
2023/11/08 12:44:25;;;;;;;2.07;1.70;;;13.00;92.10;;;;;;5105549;28;20439;-61
2023/11/08 12:46:55;;;;;;;4.67;2.07;;;12.90;92.10;;;;;;5103079;28;20448;-61
2023/11/08 12:49:25;;;;;;;3.73;2.60;;;12.90;92.10;;;;;;5104323;28;20446;-60
2023/11/08 12:51:52;;;;;;;3.73;2.13;;;12.80;92.20;;;;;;5100248;28;20458;-60
2023/11/08 12:54:21;;;;;;;6.60;1.90;;;12.80;92.30;;;;;;5100805;28;20478;-59
2023/11/08 12:56:48;;;;;;;3.60;2.37;;;12.70;92.50;;;;;;5100271;28;20438;-61